createdAt,value
2022-12-19T00:01:29.415Z,25.70
2022-12-19T00:04:02.577Z,24.82
2022-12-19T00:06:32.248Z,26.97
2022-12-19T00:09:00.197Z,26.57
2022-12-19T00:11:29.372Z,26.50
2022-12-19T00:13:58.258Z,28.55
2022-12-19T00:16:29.527Z,28.77
2022-12-19T00:18:59.776Z,27.15
2022-12-19T00:21:34.773Z,30.35
2022-12-19T00:24:02.690Z,31.82
2022-12-19T00:26:33.354Z,31.02
2022-12-19T00:29:12.587Z,30.50
2022-12-19T00:31:37.110Z,29.98
2022-12-19T00:34:04.871Z,30.30
2022-12-19T00:36:34.315Z,29.87
2022-12-19T00:39:07.693Z,27.85
2022-12-19T00:41:41.451Z,25.97
2022-12-19T00:44:14.982Z,26.30
2022-12-19T00:46:43.203Z,24.37
2022-12-19T00:49:14.881Z,24.95
2022-12-19T00:51:42.632Z,25.25
2022-12-19T00:54:10.556Z,25.72
2022-12-19T00:56:38.543Z,24.87
2022-12-19T00:59:10.018Z,23.60
2022-12-19T01:01:41.006Z,26.35
2022-12-19T01:04:30.066Z,28.80
2022-12-19T01:06:43.424Z,26.30
2022-12-19T01:09:12.921Z,24.87
2022-12-19T01:11:59.080Z,23.70
2022-12-19T01:14:26.851Z,24.52
2022-12-19T01:16:54.928Z,25.35
2022-12-19T01:19:22.626Z,25.70
2022-12-19T01:21:50.424Z,22.60
2022-12-19T01:24:19.356Z,21.85
2022-12-19T01:26:49.114Z,19.50
2022-12-19T01:29:16.774Z,19.42
2022-12-19T01:31:44.670Z,19.45
2022-12-19T01:34:13.212Z,18.70
2022-12-19T01:36:41.322Z,19.70
2022-12-19T01:39:09.160Z,17.73
2022-12-19T01:41:37.594Z,18.02
2022-12-19T01:44:09.001Z,18.23
2022-12-19T01:46:44.024Z,20.62
2022-12-19T01:49:26.766Z,23.25
2022-12-19T01:51:59.497Z,26.45
2022-12-19T01:54:37.493Z,27.70
2022-12-19T01:57:09.436Z,28.55
2022-12-19T01:59:50.848Z,27.42
2022-12-19T02:02:26.979Z,19.85
2022-12-19T02:04:54.534Z,19.15
2022-12-19T02:07:25.254Z,26.25
2022-12-19T02:09:57.794Z,27.93
2022-12-19T02:12:33.681Z,23.73
2022-12-19T02:15:03.527Z,21.90
2022-12-19T02:18:12.009Z,20.55
2022-12-19T02:21:14.245Z,19.05
2022-12-19T02:24:18.493Z,17.87
2022-12-19T02:26:57.278Z,18.25
2022-12-19T02:30:09.774Z,17.52
2022-12-19T02:32:50.780Z,18.95
2022-12-19T02:35:41.169Z,19.00
2022-12-19T02:38:27.624Z,18.07
2022-12-19T02:41:12.154Z,18.75
2022-12-19T02:43:44.919Z,20.55
2022-12-19T02:46:17.031Z,22.93
2022-12-19T02:48:45.521Z,27.60
2022-12-19T02:51:13.680Z,35.10
2022-12-19T02:53:42.155Z,26.35
2022-12-19T02:56:24.814Z,24.85
2022-12-19T02:59:17.442Z,25.80
2022-12-19T03:01:56.928Z,27.20
2022-12-19T03:04:42.456Z,26.23
2022-12-19T03:07:22.168Z,27.67
2022-12-19T03:10:04.791Z,26.50
2022-12-19T03:12:37.675Z,24.80
2022-12-19T03:15:10.871Z,24.82
2022-12-19T03:17:39.641Z,28.00
2022-12-19T03:20:41.977Z,28.15
2022-12-19T03:23:10.355Z,26.52
2022-12-19T03:25:41.054Z,26.12
2022-12-19T03:28:13.372Z,25.00
2022-12-19T03:30:44.620Z,25.03
2022-12-19T03:33:16.413Z,24.43
2022-12-19T03:35:47.860Z,22.65
2022-12-19T03:38:23.312Z,22.98
2022-12-19T03:40:52.902Z,19.40
2022-12-19T03:43:26.637Z,19.17
2022-12-19T03:46:06.318Z,19.82
2022-12-19T03:48:51.315Z,18.75
2022-12-19T03:51:34.357Z,19.27
2022-12-19T03:54:14.535Z,23.95
2022-12-19T03:57:11.290Z,53.95
2022-12-19T03:59:53.899Z,84.83
2022-12-19T04:02:24.783Z,92.22
2022-12-19T04:05:01.209Z,80.80
2022-12-19T04:07:32.401Z,78.35
2022-12-19T04:10:07.337Z,45.70
2022-12-19T04:12:39.240Z,58.28
2022-12-19T04:15:12.576Z,54.08
2022-12-19T04:17:56.785Z,45.83
2022-12-19T04:20:30.298Z,39.33
2022-12-19T04:23:20.252Z,25.95
2022-12-19T04:25:52.359Z,22.40
2022-12-19T04:28:28.320Z,25.20
2022-12-19T04:30:56.865Z,29.50
2022-12-19T04:33:24.672Z,29.18
2022-12-19T04:35:52.216Z,27.90
2022-12-19T04:38:23.153Z,62.45
2022-12-19T04:40:50.747Z,72.70
2022-12-19T04:43:18.249Z,75.17
2022-12-19T04:45:46.114Z,75.37
2022-12-19T04:48:14.355Z,91.72
2022-12-19T04:50:41.768Z,82.35
2022-12-19T04:53:09.626Z,71.57
2022-12-19T04:55:39.635Z,54.00
2022-12-19T04:58:07.713Z,32.45
2022-12-19T05:00:35.716Z,30.68
2022-12-19T05:03:03.615Z,30.43
2022-12-19T05:05:31.307Z,32.73
2022-12-19T05:07:58.771Z,33.80
2022-12-19T05:10:26.819Z,31.75
2022-12-19T05:12:54.467Z,34.03
2022-12-19T05:15:23.036Z,34.50
2022-12-19T05:17:50.773Z,43.98
2022-12-19T05:20:18.438Z,47.58
2022-12-19T05:22:46.323Z,42.55
2022-12-19T05:25:13.950Z,39.38
2022-12-19T05:27:41.530Z,64.40
2022-12-19T05:30:11.351Z,58.95
2022-12-19T05:32:39.038Z,53.23
2022-12-19T05:35:08.316Z,51.30
2022-12-19T05:37:36.701Z,48.08
2022-12-19T05:40:05.456Z,50.12
2022-12-19T05:42:36.052Z,44.42
2022-12-19T05:45:04.804Z,38.23
2022-12-19T05:47:32.642Z,37.60
2022-12-19T05:50:00.129Z,34.50
2022-12-19T05:52:28.255Z,33.35
2022-12-19T05:54:57.488Z,34.10
2022-12-19T05:57:25.522Z,40.60
2022-12-19T05:59:53.326Z,44.25
2022-12-19T06:02:20.919Z,44.98
2022-12-19T06:04:48.701Z,49.45
2022-12-19T06:07:20.761Z,47.90
2022-12-19T06:09:45.573Z,44.90
2022-12-19T06:12:13.294Z,53.28
2022-12-19T06:14:41.037Z,43.45
2022-12-19T06:17:08.755Z,36.45
2022-12-19T06:19:36.424Z,36.30
2022-12-19T06:22:04.189Z,37.23
2022-12-19T06:24:31.818Z,38.50
2022-12-19T06:26:59.522Z,52.62
2022-12-19T06:29:27.051Z,47.20
2022-12-19T06:31:54.526Z,51.48
2022-12-19T06:34:55.151Z,66.05
2022-12-19T06:36:54.618Z,68.50
2022-12-19T06:39:22.623Z,62.10
2022-12-19T06:42:08.446Z,59.10
2022-12-19T06:44:36.470Z,56.13
2022-12-19T06:47:04.233Z,54.18
2022-12-19T06:49:31.816Z,56.35
2022-12-19T06:52:00.870Z,54.58
2022-12-19T06:54:29.198Z,55.90
2022-12-19T06:56:57.029Z,53.20
2022-12-19T06:59:24.745Z,43.83
2022-12-19T07:02:12.834Z,32.38
2022-12-19T07:04:52.070Z,26.62
2022-12-19T07:07:19.851Z,26.40
2022-12-19T07:09:48.812Z,26.33
2022-12-19T07:12:16.358Z,26.93
2022-12-19T07:14:46.732Z,26.30
2022-12-19T07:17:13.636Z,29.25
2022-12-19T07:19:41.432Z,28.23
2022-12-19T07:22:09.778Z,28.07
2022-12-19T07:24:37.727Z,27.85
2022-12-19T07:27:09.480Z,27.60
2022-12-19T07:29:37.034Z,25.95
2022-12-19T07:32:04.893Z,25.37
2022-12-19T07:34:32.499Z,23.10
2022-12-19T07:37:00.198Z,23.57
2022-12-19T07:39:27.577Z,23.18
2022-12-19T07:41:55.391Z,25.10
2022-12-19T07:44:24.902Z,25.85
2022-12-19T07:46:52.669Z,26.33
2022-12-19T07:49:22.828Z,22.93
2022-12-19T07:51:49.827Z,22.80
2022-12-19T07:54:17.690Z,23.20
2022-12-19T07:56:45.955Z,22.00
2022-12-19T07:59:13.851Z,22.22
2022-12-19T08:01:41.650Z,22.42
2022-12-19T08:04:09.487Z,25.30
2022-12-19T08:06:41.168Z,29.07
2022-12-19T08:09:06.685Z,28.92
2022-12-19T08:11:34.585Z,25.92
2022-12-19T08:14:02.394Z,26.65
2022-12-19T08:16:30.098Z,25.27
2022-12-19T08:18:57.633Z,25.17
2022-12-19T08:21:25.516Z,23.12
2022-12-19T08:23:53.659Z,24.57
2022-12-19T08:26:26.202Z,22.37
2022-12-19T08:28:57.021Z,24.30
2022-12-19T08:31:27.818Z,24.52
2022-12-19T08:33:57.132Z,24.05
2022-12-19T08:36:24.999Z,23.22
2022-12-19T08:38:53.201Z,23.07
2022-12-19T08:41:20.851Z,20.02
2022-12-19T08:43:52.186Z,18.48
2022-12-19T08:46:21.429Z,17.57
2022-12-19T08:48:50.173Z,17.90
2022-12-19T08:51:18.547Z,18.57
2022-12-19T08:53:47.301Z,19.20
2022-12-19T08:56:18.415Z,16.97
2022-12-19T08:58:46.745Z,17.10
2022-12-19T09:01:18.742Z,17.75
2022-12-19T09:04:44.136Z,17.05
2022-12-19T09:06:19.206Z,17.45
2022-12-19T09:08:46.856Z,16.35
2022-12-19T09:11:17.615Z,17.48
2022-12-19T09:13:47.568Z,18.73
2022-12-19T09:16:19.717Z,19.40
2022-12-19T09:18:50.270Z,18.55
2022-12-19T09:21:21.027Z,17.15
2022-12-19T09:23:51.692Z,16.37
2022-12-19T09:26:22.327Z,17.42
2022-12-19T09:28:51.915Z,17.20
2022-12-19T09:31:23.619Z,16.55
2022-12-19T09:33:52.281Z,16.87
2022-12-19T09:36:23.782Z,19.12
2022-12-19T09:38:57.285Z,19.60
2022-12-19T09:41:42.291Z,20.27
2022-12-19T09:44:30.190Z,21.68
2022-12-19T09:47:20.352Z,21.33
2022-12-19T09:49:49.323Z,20.72
2022-12-19T09:52:29.811Z,18.50
2022-12-19T09:55:30.530Z,18.55
2022-12-19T09:58:14.964Z,17.50
2022-12-19T10:00:59.822Z,17.35
2022-12-19T10:03:41.814Z,16.30
2022-12-19T10:07:09.202Z,15.40
2022-12-19T10:09:22.793Z,19.45
2022-12-19T10:12:41.395Z,18.32
2022-12-19T10:14:38.393Z,18.45
2022-12-19T10:17:30.002Z,18.35
2022-12-19T10:20:21.809Z,18.65
2022-12-19T10:23:16.360Z,17.60
2022-12-19T10:25:55.237Z,14.33
2022-12-19T10:28:43.043Z,14.85
2022-12-19T10:31:25.058Z,15.72
2022-12-19T10:34:07.140Z,13.95
2022-12-19T10:39:36.048Z,14.63
2022-12-19T10:42:17.007Z,11.63
2022-12-19T10:44:47.157Z,15.03
2022-12-19T10:47:17.013Z,13.32
2022-12-19T10:49:45.138Z,12.20
2022-12-19T10:52:13.808Z,11.10
2022-12-19T10:54:43.364Z,13.08
2022-12-19T10:57:25.400Z,12.13
2022-12-19T11:00:09.184Z,11.88
2022-12-19T11:02:45.708Z,10.68
2022-12-19T11:05:31.891Z,10.85
2022-12-19T11:08:11.988Z,9.43
2022-12-19T11:12:02.672Z,10.95
2022-12-19T11:15:33.418Z,9.08
2022-12-19T11:21:13.347Z,8.55
2022-12-19T11:26:53.897Z,10.08
2022-12-19T11:29:29.765Z,9.30
2022-12-19T11:30:48.371Z,10.50
2022-12-19T11:30:48.858Z,10.13
2022-12-19T11:32:42.400Z,10.85
2022-12-19T11:35:24.399Z,11.83
2022-12-19T11:38:00.103Z,10.40
2022-12-19T11:40:53.290Z,10.15
2022-12-19T11:43:45.870Z,11.50
2022-12-19T11:46:27.777Z,11.45
2022-12-19T11:49:10.031Z,9.63
2022-12-19T11:51:52.487Z,11.53
2022-12-19T11:54:37.560Z,10.40
2022-12-19T11:57:11.574Z,10.63
2022-12-19T12:02:47.923Z,11.88
2022-12-19T12:05:55.654Z,10.98
2022-12-19T12:09:57.679Z,10.43
2022-12-19T12:16:39.941Z,10.45
2022-12-19T12:23:07.604Z,10.72
2022-12-19T12:31:03.928Z,9.93
2022-12-19T12:31:22.292Z,10.95
2022-12-19T12:31:39.132Z,9.77
2022-12-19T12:31:53.912Z,10.60
2022-12-19T12:31:58.265Z,11.00
2022-12-19T12:35:50.039Z,10.95
2022-12-19T12:35:55.105Z,10.32
2022-12-19T12:44:08.772Z,10.70
2022-12-19T12:46:48.883Z,10.82
2022-12-19T12:49:44.565Z,10.32
2022-12-19T12:52:39.220Z,10.58
2022-12-19T12:55:30.140Z,11.15
2022-12-19T12:57:58.461Z,12.18
2022-12-19T13:00:35.245Z,10.95
2022-12-19T13:03:14.019Z,11.28
2022-12-19T13:06:08.709Z,11.30
2022-12-19T13:11:45.569Z,10.13
2022-12-19T13:14:38.334Z,11.22
2022-12-19T13:17:35.285Z,11.12
2022-12-19T13:20:09.089Z,12.47
2022-12-19T13:22:40.800Z,11.60
2022-12-19T13:25:38.630Z,11.88
2022-12-19T13:28:28.161Z,13.88
2022-12-19T13:31:19.631Z,13.45
2022-12-19T13:33:58.465Z,14.70
2022-12-19T13:39:49.081Z,15.65
2022-12-19T13:40:02.474Z,16.57
2022-12-19T13:42:33.058Z,16.40
2022-12-19T13:45:15.761Z,18.27
2022-12-19T13:47:44.958Z,18.70
2022-12-19T13:50:39.977Z,15.13
2022-12-19T13:53:21.876Z,14.73
2022-12-19T13:55:50.557Z,15.65
2022-12-19T13:58:29.944Z,16.67
2022-12-19T14:01:05.968Z,17.37
2022-12-19T14:03:40.585Z,18.12
2022-12-19T14:06:27.531Z,18.48
2022-12-19T14:11:25.300Z,15.75
2022-12-19T14:12:28.236Z,19.45
2022-12-19T14:14:37.709Z,17.95
2022-12-19T14:17:21.557Z,17.32
2022-12-19T14:19:52.326Z,17.35
2022-12-19T14:22:26.957Z,18.32
2022-12-19T14:26:06.597Z,17.48
2022-12-19T14:28:24.644Z,16.12
2022-12-19T14:30:32.224Z,17.77
2022-12-19T14:33:46.859Z,21.73
2022-12-19T14:36:09.880Z,24.50
2022-12-19T14:39:19.704Z,30.70
2022-12-19T14:41:07.863Z,28.90
2022-12-19T14:44:00.137Z,31.17
2022-12-19T14:54:09.145Z,32.80
2022-12-19T14:54:12.862Z,28.27
2022-12-19T14:54:41.629Z,22.20
2022-12-19T14:56:03.784Z,24.75
2022-12-19T14:57:01.765Z,23.87
2022-12-19T14:59:45.656Z,32.33
2022-12-19T15:02:32.800Z,32.13
2022-12-19T15:05:08.476Z,33.75
2022-12-19T15:07:41.251Z,38.90
2022-12-19T15:11:08.833Z,42.77
2022-12-19T15:14:54.392Z,43.90
2022-12-19T15:16:02.015Z,45.12
2022-12-19T15:18:39.764Z,38.23
2022-12-19T15:21:13.647Z,38.10
2022-12-19T15:23:43.708Z,37.55
2022-12-19T15:26:16.020Z,36.95
2022-12-19T15:28:50.542Z,39.50
2022-12-19T15:31:23.849Z,40.35
2022-12-19T15:34:33.437Z,45.55
2022-12-19T15:36:21.562Z,44.90
2022-12-19T15:38:49.300Z,45.70
2022-12-19T15:41:23.179Z,46.37
2022-12-19T15:44:03.621Z,33.83
2022-12-19T15:46:29.449Z,43.23
2022-12-19T15:48:57.122Z,69.58
2022-12-19T15:51:24.824Z,76.17
2022-12-19T15:53:52.369Z,89.17
2022-12-19T15:56:30.055Z,89.83
2022-12-19T15:59:00.305Z,88.52
2022-12-19T16:01:31.709Z,65.90
2022-12-19T16:04:02.753Z,47.25
2022-12-19T16:06:30.416Z,44.20
2022-12-19T16:08:58.870Z,44.35
2022-12-19T16:11:27.039Z,43.55
2022-12-19T16:13:57.691Z,49.93
2022-12-19T16:16:25.547Z,50.48
2022-12-19T16:18:52.993Z,73.25
2022-12-19T16:21:33.972Z,84.90
2022-12-19T16:23:58.015Z,90.22
2022-12-19T16:26:34.854Z,83.67
2022-12-19T16:29:03.433Z,76.67
2022-12-19T16:31:30.897Z,77.85
2022-12-19T16:33:58.557Z,66.30
2022-12-19T16:36:26.262Z,57.05
2022-12-19T16:38:53.874Z,57.50
2022-12-19T16:41:24.611Z,65.78
2022-12-19T16:43:52.570Z,57.50
2022-12-19T16:46:23.372Z,41.00
2022-12-19T16:48:50.903Z,40.70
2022-12-19T16:51:23.105Z,41.50
2022-12-19T16:53:54.776Z,44.15
2022-12-19T16:56:33.097Z,43.80
2022-12-19T16:59:07.832Z,48.68
2022-12-19T17:01:35.781Z,51.18
2022-12-19T17:04:03.749Z,63.05
2022-12-19T17:06:31.302Z,88.90
2022-12-19T17:08:59.043Z,90.70
2022-12-19T17:11:27.672Z,92.90
2022-12-19T17:14:03.809Z,97.27
2022-12-19T17:16:31.950Z,96.72
2022-12-19T17:19:00.196Z,81.47
2022-12-19T17:21:27.776Z,71.42
2022-12-19T17:23:55.950Z,71.02
2022-12-19T17:26:25.003Z,73.30
2022-12-19T17:28:53.080Z,80.40
2022-12-19T17:31:25.939Z,87.57
2022-12-19T17:33:57.142Z,98.72
2022-12-19T17:36:32.741Z,114.40
2022-12-19T17:38:58.209Z,79.55
2022-12-19T17:41:26.699Z,66.92
2022-12-19T17:43:56.346Z,69.22
2022-12-19T17:46:25.088Z,84.15
2022-12-19T17:48:54.332Z,88.78
2022-12-19T17:51:23.956Z,91.12
2022-12-19T17:53:51.588Z,89.28
2022-12-19T17:56:20.773Z,102.22
2022-12-19T17:58:48.973Z,98.50
2022-12-19T18:01:22.156Z,91.35
2022-12-19T18:03:52.689Z,83.42
2022-12-19T18:06:20.761Z,80.15
2022-12-19T18:08:48.333Z,83.03
2022-12-19T18:11:22.793Z,84.58
2022-12-19T18:13:50.581Z,80.97
2022-12-19T18:16:27.481Z,77.42
2022-12-19T18:18:55.785Z,66.67
2022-12-19T18:21:26.220Z,67.32
2022-12-19T18:23:54.655Z,67.53
2022-12-19T18:26:22.337Z,72.20
2022-12-19T18:28:49.964Z,52.62
2022-12-19T18:31:25.880Z,47.23
2022-12-19T18:33:59.464Z,50.78
2022-12-19T18:36:29.579Z,48.58
2022-12-19T18:38:57.373Z,52.10
2022-12-19T18:41:26.811Z,50.48
2022-12-19T18:43:54.392Z,50.08
2022-12-19T18:46:28.985Z,57.03
2022-12-19T18:48:57.151Z,51.73
2022-12-19T18:51:25.797Z,53.70
2022-12-19T18:53:53.620Z,56.65
2022-12-19T18:56:21.643Z,51.88
2022-12-19T18:58:50.059Z,56.00
2022-12-19T19:01:22.428Z,58.80
2022-12-19T19:03:54.952Z,55.90
2022-12-19T19:06:26.849Z,56.55
2022-12-19T19:08:56.518Z,63.13
2022-12-19T19:11:42.524Z,60.95
2022-12-19T19:14:13.466Z,64.72
2022-12-19T19:16:41.105Z,67.08
2022-12-19T19:19:11.858Z,61.85
2022-12-19T19:21:41.191Z,61.92
2022-12-19T19:24:13.728Z,58.68
2022-12-19T19:26:41.547Z,47.03
2022-12-19T19:29:12.702Z,47.15
2022-12-19T19:31:44.326Z,52.08
2022-12-19T19:34:21.837Z,53.75
2022-12-19T19:36:53.304Z,58.75
2022-12-19T19:39:22.358Z,65.22
2022-12-19T19:41:49.798Z,67.65
2022-12-19T19:44:17.186Z,67.50
2022-12-19T19:46:45.564Z,67.10
2022-12-19T19:49:13.424Z,59.23
2022-12-19T19:51:40.925Z,46.28
2022-12-19T19:54:08.335Z,44.63
2022-12-19T19:56:36.037Z,44.55
2022-12-19T19:59:04.306Z,43.58
2022-12-19T20:01:32.094Z,49.35
2022-12-19T20:04:00.062Z,50.67
2022-12-19T20:06:27.737Z,52.62
2022-12-19T20:08:55.251Z,54.25
2022-12-19T20:11:23.163Z,61.28
2022-12-19T20:13:51.259Z,72.82
2022-12-19T20:16:19.708Z,67.75
2022-12-19T20:18:51.112Z,63.02
2022-12-19T20:21:19.969Z,55.67
2022-12-19T20:23:47.731Z,52.30
2022-12-19T20:26:16.790Z,44.48
2022-12-19T20:28:49.361Z,45.35
2022-12-19T20:31:19.177Z,46.30
2022-12-19T20:33:47.772Z,57.75
2022-12-19T20:36:16.563Z,50.70
2022-12-19T20:38:45.416Z,42.50
2022-12-19T20:41:13.343Z,37.90
2022-12-19T20:43:41.298Z,34.63
2022-12-19T20:46:12.878Z,38.10
2022-12-19T20:48:41.305Z,41.48
2022-12-19T20:51:10.276Z,53.48
2022-12-19T20:53:40.846Z,62.03
2022-12-19T20:56:12.794Z,60.48
2022-12-19T20:58:40.881Z,56.73
2022-12-19T21:01:21.638Z,45.58
2022-12-19T21:03:51.244Z,40.12
2022-12-19T21:06:21.151Z,34.88
2022-12-19T21:08:49.909Z,27.62
2022-12-19T21:11:17.364Z,30.68
2022-12-19T21:13:45.288Z,23.80
2022-12-19T21:16:17.462Z,22.55
2022-12-19T21:18:46.709Z,22.62
2022-12-19T21:21:19.448Z,23.67
2022-12-19T21:23:47.451Z,25.65
2022-12-19T21:26:15.001Z,23.52
2022-12-19T21:28:43.204Z,23.55
2022-12-19T21:31:27.743Z,26.30
2022-12-19T21:34:01.574Z,26.82
2022-12-19T21:36:30.224Z,27.95
2022-12-19T21:39:01.358Z,26.15
2022-12-19T21:41:30.266Z,28.32
2022-12-19T21:43:59.903Z,26.12
2022-12-19T21:46:32.473Z,31.35
2022-12-19T21:49:01.985Z,27.93
2022-12-19T21:51:31.498Z,24.05
2022-12-19T21:54:02.444Z,23.90
2022-12-19T21:56:36.648Z,29.00
2022-12-19T21:59:07.861Z,21.68
2022-12-19T22:01:36.116Z,22.30
2022-12-19T22:04:08.855Z,30.90
2022-12-19T22:06:38.334Z,27.98
2022-12-19T22:09:11.025Z,28.23
2022-12-19T22:11:38.874Z,25.12
2022-12-19T22:14:06.700Z,24.20
2022-12-19T22:16:35.462Z,23.80
2022-12-19T22:19:04.581Z,24.40
2022-12-19T22:21:33.463Z,23.45
2022-12-19T22:24:02.727Z,20.25
2022-12-19T22:26:31.811Z,19.70
2022-12-19T22:28:59.732Z,18.95
2022-12-19T22:31:31.278Z,21.37
2022-12-19T22:34:06.585Z,26.20
2022-12-19T22:36:36.747Z,25.92
2022-12-19T22:39:09.315Z,28.15
2022-12-19T22:41:38.027Z,33.08
2022-12-19T22:44:08.213Z,34.27
2022-12-19T22:46:37.356Z,37.58
2022-12-19T22:49:08.406Z,29.95
2022-12-19T22:51:37.352Z,26.57
2022-12-19T22:54:06.863Z,28.98
2022-12-19T22:56:35.794Z,30.15
2022-12-19T22:59:07.323Z,33.65
2022-12-19T23:01:41.355Z,33.67
2022-12-19T23:04:13.576Z,31.87
2022-12-19T23:06:42.151Z,32.48
2022-12-19T23:09:14.342Z,33.10
2022-12-19T23:11:46.738Z,25.32
2022-12-19T23:14:17.140Z,21.73
2022-12-19T23:16:45.376Z,17.77
2022-12-19T23:19:15.386Z,21.15
2022-12-19T23:21:43.370Z,20.70
2022-12-19T23:24:11.757Z,20.77
2022-12-19T23:26:39.547Z,21.75
2022-12-19T23:29:11.717Z,23.18
2022-12-19T23:31:42.403Z,21.80
2022-12-19T23:34:10.773Z,16.32
2022-12-19T23:37:09.594Z,16.50
2022-12-19T23:39:10.547Z,16.73
2022-12-19T23:41:39.295Z,16.95
2022-12-19T23:44:08.462Z,17.80
2022-12-19T23:46:36.888Z,21.62
2022-12-19T23:49:04.318Z,20.75
2022-12-19T23:51:31.706Z,23.05
2022-12-19T23:53:59.739Z,23.27
2022-12-19T23:56:31.348Z,22.22
2022-12-19T23:58:59.807Z,23.65
